Time;durP1;ratioP1;P1;durP2;ratioP2;P2;SDS_P1;SDS_P2;PMS_P1;PMS_P2;Temp;Humidity;BMP_temperature;BMP_pressure;BME280_temperature;BME280_humidity;BME280_pressure;Samples;Min_cycle;Max_cycle;Signal;HPM_P1;HPM_P2
2022/02/18 00:00:17;;;;;;;;;;;;;;;3.04;80.33;95926.19;5031678;28;19970;-61
2022/02/18 00:02:42;;;;;;;;;;;;;;;3.15;80.45;95931.06;5031395;28;19921;-60
2022/02/18 00:05:08;;;;;;;;;;;;;;;3.14;80.09;95928.72;5050400;28;20305;-62
2022/02/18 00:07:34;;;;;;;;;;;;;;;3.11;80.54;95942.34;5054797;28;19959;-63
2022/02/18 00:09:59;;;;;;;;;;;;;;;3.07;81.70;95929.03;5055104;28;19947;-62
2022/02/18 00:12:25;;;;;;;;;;;;;;;3.07;81.15;95930.88;5047939;28;19966;-62
2022/02/18 00:14:51;;;;;;;;;;;;;;;3.12;80.95;95920.38;5035280;28;19925;-62
2022/02/18 00:17:19;;;;;;;;;;;;;;;3.15;81.32;95925.84;5035275;28;19927;-61
2022/02/18 00:19:45;;;;;;;;;;;;;;;3.14;82.08;95923.47;5033631;28;19925;-62
2022/02/18 00:22:11;;;;;;;;;;;;;;;3.14;80.91;95924.25;5034960;28;19921;-61
2022/02/18 00:24:36;;;;;;;;;;;;;;;3.05;81.11;95912.03;5035012;28;20098;-61
2022/02/18 00:27:02;;;;;;;;;;;;;;;3.10;80.91;95914.63;5033623;28;20427;-62
2022/02/18 00:29:27;;;;;;;;;;;;;;;3.15;80.88;95909.34;5034938;28;19925;-61
2022/02/18 00:31:57;;;;;;;;;;;;;;;3.17;80.90;95922.94;5034936;28;19983;-62
2022/02/18 00:34:24;;;;;;;;;;;;;;;3.10;80.90;95917.25;5033410;28;19970;-61
2022/02/18 00:36:49;;;;;;;;;;;;;;;3.11;80.75;95910.94;5033499;28;19925;-63
2022/02/18 00:39:15;;;;;;;;;;;;;;;3.19;80.51;95913.75;5034525;28;19921;-61
2022/02/18 00:41:42;;;;;;;;;;;;;;;3.14;80.58;95913.78;5033346;28;20031;-60
2022/02/18 00:44:10;;;;;;;;;;;;;;;3.14;81.48;95916.41;5018071;28;19975;-59
2022/02/18 00:46:35;;;;;;;;;;;;;;;3.22;81.29;95920.28;5020053;28;20340;-61
2022/02/18 00:49:01;;;;;;;;;;;;;;;3.23;81.99;95918.44;5053159;28;19921;-62
2022/02/18 00:51:26;;;;;;;;;;;;;;;3.12;81.95;95925.59;5053200;28;19920;-60
2022/02/18 00:53:52;;;;;;;;;;;;;;;3.09;82.38;95916.47;5053855;28;19964;-63
2022/02/18 00:56:17;;;;;;;;;;;;;;;3.15;81.84;95925.06;5054587;28;19928;-61
2022/02/18 00:58:43;;;;;;;;;;;;;;;3.17;81.88;95926.31;5054460;28;19968;-63
2022/02/18 01:01:09;;;;;;;;;;;;;;;3.24;81.72;95933.09;5053088;28;19932;-60
2022/02/18 01:03:35;;;;;;;;;;;;;;;3.28;81.25;95929.66;5053935;28;20396;-61
2022/02/18 01:06:01;;;;;;;;;;;;;;;3.25;80.88;95939.88;5046308;28;20278;-61
2022/02/18 01:08:26;;;;;;;;;;;;;;;3.32;81.35;95943.72;5033043;28;19924;-63
2022/02/18 01:10:52;;;;;;;;;;;;;;;3.24;81.07;95941.72;5034328;28;20027;-60
2022/02/18 01:13:17;;;;;;;;;;;;;;;3.39;81.64;95935.59;5032145;28;19920;-61
2022/02/18 01:15:43;;;;;;;;;;;;;;;3.40;80.98;95935.28;5053505;28;19931;-63
2022/02/18 01:18:09;;;;;;;;;;;;;;;3.41;80.06;95942.13;5052495;28;19967;-62
2022/02/18 01:20:34;;;;;;;;;;;;;;;3.47;80.38;95923.72;5054027;28;20443;-61
2022/02/18 01:23:00;;;;;;;;;;;;;;;3.43;80.14;95936.59;5050056;28;19956;-62
2022/02/18 01:25:25;;;;;;;;;;;;;;;3.41;80.73;95934.25;5033809;28;19925;-60
2022/02/18 01:27:55;;;;;;;;;;;;;;;3.46;80.29;95941.28;5033857;28;19961;-60
2022/02/18 01:30:25;;;;;;;;;;;;;;;3.44;80.41;95938.13;5032389;28;19932;-60
2022/02/18 01:32:50;;;;;;;;;;;;;;;3.44;80.83;95927.66;5033633;28;20019;-62
2022/02/18 01:35:17;;;;;;;;;;;;;;;3.29;80.69;95941.66;5033656;28;20378;-61
2022/02/18 01:37:46;;;;;;;;;;;;;;;3.29;81.03;95941.66;5016295;28;20468;-62
2022/02/18 01:40:12;;;;;;;;;;;;;;;3.26;81.24;95944.06;5032311;28;20502;-61
2022/02/18 01:42:38;;;;;;;;;;;;;;;3.22;81.02;95951.69;5032133;28;19921;-61
2022/02/18 01:45:03;;;;;;;;;;;;;;;3.26;80.90;95946.69;5053136;28;19924;-61
2022/02/18 01:47:29;;;;;;;;;;;;;;;3.35;80.52;95950.25;5053088;28;20473;-63
2022/02/18 01:49:58;;;;;;;;;;;;;;;3.38;81.28;95954.94;5053300;28;19924;-61
2022/02/18 01:52:28;;;;;;;;;;;;;;;3.45;81.27;95960.66;5050193;28;20414;-61
2022/02/18 01:54:53;;;;;;;;;;;;;;;3.41;81.11;95965.66;5053146;28;20024;-61
2022/02/18 01:57:19;;;;;;;;;;;;;;;3.38;80.51;95962.81;5053362;28;20019;-62
2022/02/18 01:59:44;;;;;;;;;;;;;;;3.24;81.53;95967.91;5018717;28;19972;-61
2022/02/18 02:02:10;;;;;;;;;;;;;;;3.32;82.47;95969.13;5051760;28;19959;-60
2022/02/18 02:04:35;;;;;;;;;;;;;;;3.24;81.36;95974.97;5035968;28;20011;-61
2022/02/18 02:07:03;;;;;;;;;;;;;;;3.28;82.00;95976.75;5015722;28;19921;-60
2022/02/18 02:09:30;;;;;;;;;;;;;;;3.26;81.73;95972.84;5015380;28;20024;-60
2022/02/18 02:11:55;;;;;;;;;;;;;;;3.19;81.32;95975.78;5031546;28;20380;-62
2022/02/18 02:14:22;;;;;;;;;;;;;;;3.22;82.51;95979.69;5031713;28;19925;-62
2022/02/18 02:16:48;;;;;;;;;;;;;;;3.18;82.37;95969.00;5031597;28;19925;-62
2022/02/18 02:19:14;;;;;;;;;;;;;;;3.30;82.58;95979.13;5014984;28;19921;-61
2022/02/18 02:21:45;;;;;;;;;;;;;;;3.24;83.34;95983.59;5031402;28;19927;-61
2022/02/18 02:24:12;;;;;;;;;;;;;;;3.23;82.75;95989.88;5014913;28;19921;-62
2022/02/18 02:26:38;;;;;;;;;;;;;;;3.20;82.60;95982.56;5031079;28;19925;-61
2022/02/18 02:29:05;;;;;;;;;;;;;;;3.18;82.50;95987.31;5030691;28;19920;-62
2022/02/18 02:31:31;;;;;;;;;;;;;;;3.22;82.86;95987.56;5031136;28;19928;-61
2022/02/18 02:33:57;;;;;;;;;;;;;;;3.22;82.49;95983.09;5031221;28;19921;-60
2022/02/18 02:36:24;;;;;;;;;;;;;;;3.07;81.62;95997.06;5031076;28;19924;-61
2022/02/18 02:38:51;;;;;;;;;;;;;;;3.19;82.89;95994.88;5031470;28;20445;-63
2022/02/18 02:41:17;;;;;;;;;;;;;;;3.18;82.63;96000.41;5031256;28;19964;-62
2022/02/18 02:43:43;;;;;;;;;;;;;;;3.13;82.11;96001.22;5015400;28;19921;-60
2022/02/18 02:46:09;;;;;;;;;;;;;;;3.17;82.83;95991.75;5032607;28;19971;-62
2022/02/18 02:48:35;;;;;;;;;;;;;;;3.21;82.40;95996.44;5031036;28;20337;-62
2022/02/18 02:51:06;;;;;;;;;;;;;;;3.20;81.60;96008.75;5030818;28;19925;-62
2022/02/18 02:53:33;;;;;;;;;;;;;;;3.24;81.95;96004.56;5049999;28;19920;-61
2022/02/18 02:55:59;;;;;;;;;;;;;;;3.27;81.34;96005.84;5051047;28;20420;-61
2022/02/18 02:58:24;;;;;;;;;;;;;;;3.28;81.00;96016.03;5039746;28;19921;-60
2022/02/18 03:00:51;;;;;;;;;;;;;;;3.33;80.95;96013.38;5030998;28;19932;-60
2022/02/18 03:03:39;;;;;;;;;;;;;;;3.28;80.70;96028.34;5030636;28;19924;-62
2022/02/18 03:06:05;;;;;;;;;;;;;;;3.24;80.91;96024.72;5030745;28;20291;-62
2022/02/18 03:08:32;;;;;;;;;;;;;;;3.27;80.69;96029.41;5031001;28;19921;-62
2022/02/18 03:11:15;;;;;;;;;;;;;;;3.31;81.08;96031.19;5014826;28;20121;-60
2022/02/18 03:13:53;;;;;;;;;;;;;;;3.35;80.87;96036.66;5030935;28;19925;-60
2022/02/18 03:16:20;;;;;;;;;;;;;;;3.37;80.32;96039.78;5030451;28;20102;-61
2022/02/18 03:18:45;;;;;;;;;;;;;;;3.45;80.59;96046.28;5030642;28;19921;-61
2022/02/18 03:21:11;;;;;;;;;;;;;;;3.44;80.37;96045.47;5032138;28;19925;-61
2022/02/18 03:23:37;;;;;;;;;;;;;;;3.42;80.46;96048.38;5031879;28;20279;-62
2022/02/18 03:26:03;;;;;;;;;;;;;;;3.36;80.16;96044.25;5030722;28;20426;-62
2022/02/18 03:28:30;;;;;;;;;;;;;;;3.40;80.86;96042.63;5030697;28;19928;-63
2022/02/18 03:31:03;;;;;;;;;;;;;;;3.41;80.63;96044.22;5030610;28;19982;-61
2022/02/18 03:33:31;;;;;;;;;;;;;;;3.51;80.89;96050.44;5030441;28;20058;-62
2022/02/18 03:35:58;;;;;;;;;;;;;;;3.41;80.72;96048.66;5013756;28;20016;-61
2022/02/18 03:38:25;;;;;;;;;;;;;;;3.45;81.03;96048.91;5030552;28;19921;-61
2022/02/18 03:40:52;;;;;;;;;;;;;;;3.53;80.73;96038.63;5031961;28;19925;-61
2022/02/18 03:43:18;;;;;;;;;;;;;;;3.60;80.71;96040.94;5049207;28;19943;-63
2022/02/18 03:46:22;;;;;;;;;;;;;;;3.53;80.98;96050.91;5012957;28;19925;-62
2022/02/18 03:48:51;;;;;;;;;;;;;;;3.52;80.86;96055.38;4997647;28;19967;-62
2022/02/18 03:51:17;;;;;;;;;;;;;;;3.57;81.00;96055.34;5016154;28;20015;-61
2022/02/18 03:53:45;;;;;;;;;;;;;;;3.56;80.85;96053.81;5052376;28;20297;-63
2022/02/18 03:56:16;;;;;;;;;;;;;;;3.67;80.72;96062.34;5034300;28;20074;-62
2022/02/18 03:58:44;;;;;;;;;;;;;;;3.61;80.86;96071.28;5017952;28;20003;-61
2022/02/18 04:01:10;;;;;;;;;;;;;;;3.63;80.85;96082.28;5033931;28;19960;-61
2022/02/18 04:03:35;;;;;;;;;;;;;;;3.58;81.17;96085.72;5052213;28;19927;-61
2022/02/18 04:06:10;;;;;;;;;;;;;;;3.59;81.16;96068.19;5055478;28;20417;-62
2022/02/18 04:08:41;;;;;;;;;;;;;;;3.59;81.12;96082.06;5053811;28;19921;-61
2022/02/18 04:11:09;;;;;;;;;;;;;;;3.59;81.74;96081.28;5053925;28;19971;-62
2022/02/18 04:13:35;;;;;;;;;;;;;;;3.52;81.51;96088.66;5054071;28;19952;-61
2022/02/18 04:16:00;;;;;;;;;;;;;;;3.56;81.68;96090.47;5036940;28;20390;-59
2022/02/18 04:18:26;;;;;;;;;;;;;;;3.59;82.12;96099.63;5053706;28;20004;-61
2022/02/18 04:20:55;;;;;;;;;;;;;;;3.63;81.82;96096.16;5053663;28;19925;-61
2022/02/18 04:23:34;;;;;;;;;;;;;;;3.63;81.66;96108.47;5053460;28;19927;-62
2022/02/18 04:26:00;;;;;;;;;;;;;;;3.61;81.17;96106.13;5052946;28;19936;-60
2022/02/18 04:28:26;;;;;;;;;;;;;;;3.60;81.08;96106.41;5037797;28;19921;-68
2022/02/18 04:30:51;;;;;;;;;;;;;;;3.56;80.90;96116.66;5036518;28;19925;-60
2022/02/18 04:33:17;;;;;;;;;;;;;;;3.63;81.28;96108.47;5036469;28;20390;-62
2022/02/18 04:35:43;;;;;;;;;;;;;;;3.62;80.85;96110.31;5035003;28;19921;-62
2022/02/18 04:38:09;;;;;;;;;;;;;;;3.57;81.42;96112.19;5033244;28;19925;-61
2022/02/18 04:40:34;;;;;;;;;;;;;;;3.59;80.77;96112.72;5033213;28;20348;-61
2022/02/18 04:43:00;;;;;;;;;;;;;;;3.56;81.19;96119.28;5034366;28;19949;-59
2022/02/18 04:45:28;;;;;;;;;;;;;;;3.63;81.89;96117.13;5033533;28;19921;-60
2022/02/18 04:47:53;;;;;;;;;;;;;;;3.70;80.91;96116.03;5034874;28;20011;-61
2022/02/18 04:50:20;;;;;;;;;;;;;;;3.67;80.35;96124.44;5054426;28;19929;-61
2022/02/18 04:52:46;;;;;;;;;;;;;;;3.62;80.14;96118.19;5052697;28;20297;-62
2022/02/18 04:55:11;;;;;;;;;;;;;;;3.67;81.06;96122.59;5054285;28;19931;-61
2022/02/18 04:57:37;;;;;;;;;;;;;;;3.66;80.67;96133.34;5053420;28;20382;-61
2022/02/18 05:00:04;;;;;;;;;;;;;;;3.64;80.67;96138.84;5054328;28;19925;-61
2022/02/18 05:02:29;;;;;;;;;;;;;;;3.63;80.33;96137.28;5052432;28;20440;-62
2022/02/18 05:04:55;;;;;;;;;;;;;;;3.59;80.89;96141.53;5052478;28;19925;-63
2022/02/18 05:07:20;;;;;;;;;;;;;;;3.67;80.98;96134.91;5049312;28;19945;-59
2022/02/18 05:09:46;;;;;;;;;;;;;;;3.71;80.29;96139.34;5026208;28;19932;-61
2022/02/18 05:12:12;;;;;;;;;;;;;;;3.66;80.66;96135.97;5030201;28;20493;-61
2022/02/18 05:14:37;;;;;;;;;;;;;;;3.62;80.33;96143.59;5030946;28;20016;-62
2022/02/18 05:17:03;;;;;;;;;;;;;;;3.63;80.81;96145.94;5031868;28;19948;-60
2022/02/18 05:19:28;;;;;;;;;;;;;;;3.66;80.21;96143.81;5032142;28;19924;-63
2022/02/18 05:21:54;;;;;;;;;;;;;;;3.69;80.64;96151.91;5029604;28;19921;-61
2022/02/18 05:24:21;;;;;;;;;;;;;;;3.73;80.76;96150.31;5043355;28;19929;-61
2022/02/18 05:26:49;;;;;;;;;;;;;;;3.82;80.24;96156.56;5031669;28;20412;-61
2022/02/18 05:29:14;;;;;;;;;;;;;;;3.79;79.95;96158.91;5029560;28;19921;-62
2022/02/18 05:31:40;;;;;;;;;;;;;;;3.75;80.58;96157.91;5030529;28;20350;-61
2022/02/18 05:34:11;;;;;;;;;;;;;;;3.77;80.87;96163.66;5030294;28;20362;-62
2022/02/18 05:36:37;;;;;;;;;;;;;;;3.72;80.32;96164.47;5039196;28;20386;-61
2022/02/18 05:39:03;;;;;;;;;;;;;;;3.75;80.51;96174.41;5042346;28;19951;-61
2022/02/18 05:41:29;;;;;;;;;;;;;;;3.75;80.98;96169.16;5030683;28;20465;-61
2022/02/18 05:43:55;;;;;;;;;;;;;;;3.84;80.09;96183.25;5042817;28;19921;-63
2022/02/18 05:46:20;;;;;;;;;;;;;;;3.84;80.27;96180.63;5045538;28;19924;-62
2022/02/18 05:48:46;;;;;;;;;;;;;;;3.92;80.45;96181.91;5047092;28;20356;-61
2022/02/18 05:51:11;;;;;;;;;;;;;;;3.93;80.26;96174.81;5048012;28;19924;-61
2022/02/18 05:53:37;;;;;;;;;;;;;;;3.93;79.92;96183.47;5047639;28;20259;-63
2022/02/18 05:56:05;;;;;;;;;;;;;;;3.95;80.52;96177.97;5048674;28;19955;-61
2022/02/18 05:58:32;;;;;;;;;;;;;;;3.87;80.15;96180.09;5048945;28;20411;-61
2022/02/18 06:00:58;;;;;;;;;;;;;;;3.89;80.84;96182.44;5048446;28;19978;-62
2022/02/18 06:03:23;;;;;;;;;;;;;;;3.92;80.65;96188.97;5048741;28;20166;-62
2022/02/18 06:05:49;;;;;;;;;;;;;;;3.97;80.82;96196.78;5045556;28;19975;-61
2022/02/18 06:08:15;;;;;;;;;;;;;;;3.99;79.68;96198.09;5029060;28;20375;-62
2022/02/18 06:10:40;;;;;;;;;;;;;;;3.96;79.86;96197.84;5029797;28;19932;-61
2022/02/18 06:13:06;;;;;;;;;;;;;;;3.86;80.35;96201.34;5029439;28;20406;-62
2022/02/18 06:15:32;;;;;;;;;;;;;;;3.89;80.77;96207.88;5038552;28;19925;-62
2022/02/18 06:17:58;;;;;;;;;;;;;;;3.83;80.15;96212.34;5028362;28;20293;-63
2022/02/18 06:20:23;;;;;;;;;;;;;;;3.91;80.83;96209.13;5030134;28;20007;-62
2022/02/18 06:22:49;;;;;;;;;;;;;;;3.94;79.77;96215.69;5027933;28;19921;-64
2022/02/18 06:25:15;;;;;;;;;;;;;;;4.01;80.53;96214.34;5029112;28;20023;-62
2022/02/18 06:27:40;;;;;;;;;;;;;;;4.15;79.53;96217.13;5026519;28;19920;-63
2022/02/18 06:30:08;;;;;;;;;;;;;;;4.19;79.72;96222.59;5036433;28;19932;-62
2022/02/18 06:32:33;;;;;;;;;;;;;;;4.15;78.95;96221.56;5029434;28;19921;-62
2022/02/18 06:34:59;;;;;;;;;;;;;;;4.21;79.14;96230.97;5029366;28;20439;-61
2022/02/18 06:37:24;;;;;;;;;;;;;;;4.32;79.07;96230.63;5042250;28;20360;-61
2022/02/18 06:39:50;;;;;;;;;;;;;;;4.26;78.83;96236.16;5042631;28;20282;-60
2022/02/18 06:42:15;;;;;;;;;;;;;;;4.25;78.51;96242.47;5028265;28;20374;-62
2022/02/18 06:44:41;;;;;;;;;;;;;;;4.22;79.16;96243.03;5010176;28;20386;-60
2022/02/18 06:47:07;;;;;;;;;;;;;;;4.20;78.57;96243.28;5027638;28;19940;-64
2022/02/18 06:49:32;;;;;;;;;;;;;;;4.18;78.52;96250.66;5026345;28;19975;-59
2022/02/18 06:51:58;;;;;;;;;;;;;;;4.25;79.10;96266.06;5027445;28;19924;-63
2022/02/18 06:54:27;;;;;;;;;;;;;;;4.16;79.06;96278.97;5026908;28;19925;-62
2022/02/18 06:56:53;;;;;;;;;;;;;;;4.20;77.81;96281.84;5029122;28;20032;-60
2022/02/18 06:59:19;;;;;;;;;;;;;;;4.22;75.26;96284.97;5029080;28;20426;-60
2022/02/18 07:01:47;;;;;;;;;;;;;;;4.21;74.94;96288.66;5027377;28;19916;-62
2022/02/18 07:04:13;;;;;;;;;;;;;;;4.23;74.52;96297.78;5027304;28;19921;-61
2022/02/18 07:06:38;;;;;;;;;;;;;;;4.22;73.82;96301.47;5027681;28;19925;-60
2022/02/18 07:09:07;;;;;;;;;;;;;;;4.20;73.50;96310.66;5027667;28;19966;-61
2022/02/18 07:11:32;;;;;;;;;;;;;;;4.28;72.61;96305.63;5011356;28;19928;-60
2022/02/18 07:13:58;;;;;;;;;;;;;;;4.43;72.30;96315.25;5045330;28;19955;-61
2022/02/18 07:16:23;;;;;;;;;;;;;;;4.59;72.78;96323.00;5047304;28;19943;-61
2022/02/18 07:18:49;;;;;;;;;;;;;;;4.67;71.74;96317.97;5048950;28;19989;-59
2022/02/18 07:21:15;;;;;;;;;;;;;;;4.62;71.56;96323.25;5047449;28;20458;-60
2022/02/18 07:23:41;;;;;;;;;;;;;;;4.67;71.67;96330.28;5045540;28;19928;-61
2022/02/18 07:26:06;;;;;;;;;;;;;;;4.77;72.02;96335.47;5049301;28;19924;-60
2022/02/18 07:28:34;;;;;;;;;;;;;;;4.76;71.36;96328.66;5046711;28;20381;-60
2022/02/18 07:30:59;;;;;;;;;;;;;;;4.76;71.43;96336.53;5048016;28;19925;-60
2022/02/18 07:33:25;;;;;;;;;;;;;;;4.72;70.96;96343.38;5048440;28;19943;-62
2022/02/18 07:35:51;;;;;;;;;;;;;;;4.91;71.06;96341.66;5049119;28;19931;-60
2022/02/18 07:38:18;;;;;;;;;;;;;;;4.87;70.48;96351.13;5047371;28;19927;-61
2022/02/18 07:40:43;;;;;;;;;;;;;;;4.86;71.27;96352.19;5043984;28;19968;-61
2022/02/18 07:43:09;;;;;;;;;;;;;;;4.78;71.03;96350.94;5046138;28;20109;-60
2022/02/18 07:45:35;;;;;;;;;;;;;;;4.78;71.86;96361.44;5027739;28;20924;-60
2022/02/18 07:48:00;;;;;;;;;;;;;;;4.82;70.78;96359.03;5027292;28;19920;-62
2022/02/18 07:50:26;;;;;;;;;;;;;;;4.85;71.27;96368.22;5039272;28;19924;-61
2022/02/18 07:52:52;;;;;;;;;;;;;;;4.97;70.42;96372.06;5034511;28;19927;-62
2022/02/18 07:55:17;;;;;;;;;;;;;;;4.98;70.51;96381.50;5025280;28;20287;-62
2022/02/18 07:57:43;;;;;;;;;;;;;;;5.01;70.47;96388.81;5026722;28;20127;-63
2022/02/18 08:00:09;;;;;;;;;;;;;;;4.98;70.63;96391.22;5032606;28;19928;-59
2022/02/18 08:02:41;;;;;;;;;;;;;;;4.97;71.01;96393.06;5046516;28;20266;-62
2022/02/18 08:05:07;;;;;;;;;;;;;;;5.14;69.67;96397.13;5045256;28;20421;-60
2022/02/18 08:07:32;;;;;;;;;;;;;;;5.10;69.94;96396.13;5044888;28;19921;-62
2022/02/18 08:09:58;;;;;;;;;;;;;;;5.18;69.26;96404.19;5045771;28;20011;-61
2022/02/18 08:12:23;;;;;;;;;;;;;;;5.26;69.26;96399.38;5036379;28;20019;-61
2022/02/18 08:14:50;;;;;;;;;;;;;;;5.21;68.61;96408.13;5026647;28;19932;-62
2022/02/18 08:17:15;;;;;;;;;;;;;;;5.19;68.82;96413.63;5025913;28;19921;-61
2022/02/18 08:19:41;;;;;;;;;;;;;;;5.30;69.45;96418.81;5026830;28;19975;-61
2022/02/18 08:22:07;;;;;;;;;;;;;;;5.31;68.95;96423.00;5027480;28;19941;-61
2022/02/18 08:24:33;;;;;;;;;;;;;;;5.41;68.20;96426.31;5024142;28;19950;-62
2022/02/18 08:26:58;;;;;;;;;;;;;;;5.50;68.08;96429.13;5027320;28;20462;-61
2022/02/18 08:29:24;;;;;;;;;;;;;;;5.46;68.13;96438.63;5027512;28;20031;-62
2022/02/18 08:31:50;;;;;;;;;;;;;;;5.60;67.75;96436.13;5028703;28;20294;-63
2022/02/18 08:34:16;;;;;;;;;;;;;;;5.67;68.02;96433.97;5028746;28;19921;-61
2022/02/18 08:36:41;;;;;;;;;;;;;;;5.64;66.93;96439.75;5027350;28;19917;-61
2022/02/18 08:39:08;;;;;;;;;;;;;;;5.68;66.87;96446.06;5028968;28;19927;-61
2022/02/18 08:41:34;;;;;;;;;;;;;;;5.66;67.09;96451.56;5029828;28;20484;-60
2022/02/18 08:43:59;;;;;;;;;;;;;;;5.63;66.38;96451.34;5030026;28;19928;-61
2022/02/18 08:46:25;;;;;;;;;;;;;;;5.77;66.15;96452.28;5029812;28;19928;-62
2022/02/18 08:48:51;;;;;;;;;;;;;;;6.03;66.60;96454.66;5028360;28;20016;-61
2022/02/18 08:51:17;;;;;;;;;;;;;;;6.18;65.23;96451.88;5028080;28;20031;-61
2022/02/18 08:53:42;;;;;;;;;;;;;;;6.07;64.40;96468.81;5027713;28;20028;-61
2022/02/18 08:56:08;;;;;;;;;;;;;;;5.82;65.12;96467.97;5028728;28;19932;-62
2022/02/18 08:58:33;;;;;;;;;;;;;;;6.05;65.18;96465.69;5010315;28;20269;-62
2022/02/18 09:00:59;;;;;;;;;;;;;;;6.39;64.81;96467.44;5027561;28;20366;-61
2022/02/18 09:03:25;;;;;;;;;;;;;;;6.38;63.58;96477.13;5028545;28;19927;-62
2022/02/18 09:05:50;;;;;;;;;;;;;;;6.41;64.08;96468.69;5030740;28;20305;-61
2022/02/18 09:08:16;;;;;;;;;;;;;;;6.55;63.17;96474.06;5031682;28;20414;-61
2022/02/18 09:10:44;;;;;;;;;;;;;;;6.70;62.78;96483.59;5028709;28;19971;-61
2022/02/18 09:13:10;;;;;;;;;;;;;;;6.81;62.23;96470.03;5032057;28;20397;-61
2022/02/18 09:15:35;;;;;;;;;;;;;;;6.73;61.57;96472.50;5046277;28;19967;-61
2022/02/18 09:18:16;;;;;;;;;;;;;;;6.76;62.15;96475.34;5049067;28;19920;-61
2022/02/18 09:20:44;;;;;;;;;;;;;;;6.76;61.57;96479.84;5051171;28;19932;-62
2022/02/18 09:23:10;;;;;;;;;;;;;;;7.02;60.94;96490.81;5035573;28;19975;-63
2022/02/18 09:25:36;;;;;;;;;;;;;;;7.26;60.34;96490.72;5029408;28;19929;-62
2022/02/18 09:28:01;;;;;;;;;;;;;;;7.53;60.16;96495.34;5029880;28;20301;-62
2022/02/18 09:30:27;;;;;;;;;;;;;;;7.41;58.76;96498.41;5029899;28;20386;-61
2022/02/18 09:32:53;;;;;;;;;;;;;;;7.23;59.42;96501.84;5040285;28;19986;-62
2022/02/18 09:35:19;;;;;;;;;;;;;;;7.05;59.38;96508.69;5041865;28;19999;-62
2022/02/18 09:37:44;;;;;;;;;;;;;;;7.05;59.12;96514.72;5033980;28;19921;-64
2022/02/18 09:40:12;;;;;;;;;;;;;;;7.15;59.30;96515.69;5035732;28;19932;-61
2022/02/18 09:42:40;;;;;;;;;;;;;;;7.13;59.57;96508.03;5029878;28;19925;-61
2022/02/18 09:45:06;;;;;;;;;;;;;;;7.05;58.68;96514.72;5029013;28;19932;-61
2022/02/18 09:47:37;;;;;;;;;;;;;;;6.83;58.68;96511.88;5033101;28;19912;-60
2022/02/18 09:50:14;;;;;;;;;;;;;;;6.82;59.57;96521.63;5004616;28;19979;-60
2022/02/18 09:52:39;;;;;;;;;;;;;;;6.79;58.76;96529.28;5030520;28;19920;-61
2022/02/18 09:55:05;;;;;;;;;;;;;;;6.65;58.72;96521.31;5033103;28;20180;-59
2022/02/18 09:57:31;;;;;;;;;;;;;;;6.41;59.35;96529.19;5030160;28;20282;-62
2022/02/18 09:59:56;;;;;;;;;;;;;;;6.33;60.22;96550.88;5043890;28;19956;-61
2022/02/18 10:02:22;;;;;;;;;;;;;;;6.09;60.58;96569.28;5035264;28;20435;-61
2022/02/18 10:04:52;;;;;;;;;;;;;;;5.13;63.04;96563.63;5042860;28;19929;-61
2022/02/18 10:07:19;;;;;;;;;;;;;;;4.92;63.99;96570.81;4992474;28;19925;-61
2022/02/18 10:09:49;;;;;;;;;;;;;;;4.94;64.27;96581.81;5028495;28;20267;-59
2022/02/18 10:12:15;;;;;;;;;;;;;;;5.05;64.60;96585.97;5029085;28;19921;-62
2022/02/18 10:14:54;;;;;;;;;;;;;;;5.01;62.54;96587.56;5010325;28;20271;-61
2022/02/18 10:17:20;;;;;;;;;;;;;;;5.01;61.80;96598.84;5007947;28;19922;-60
2022/02/18 10:19:50;;;;;;;;;;;;;;;4.99;61.12;96602.78;5007430;28;20398;-62
2022/02/18 10:22:21;;;;;;;;;;;;;;;4.91;60.91;96608.59;5014667;28;19921;-60
2022/02/18 10:24:47;;;;;;;;;;;;;;;4.87;60.67;96613.59;5043895;28;20475;-61
2022/02/18 10:27:15;;;;;;;;;;;;;;;5.03;60.83;96624.03;5039272;28;19921;-61
2022/02/18 10:29:59;;;;;;;;;;;;;;;5.15;60.67;96622.69;5030430;28;20016;-61
2022/02/18 10:32:25;;;;;;;;;;;;;;;5.24;59.20;96625.53;5036990;28;19921;-60
2022/02/18 10:34:53;;;;;;;;;;;;;;;5.36;58.88;96628.63;5027488;28;20359;-64
2022/02/18 10:37:20;;;;;;;;;;;;;;;5.35;58.23;96642.00;5023769;28;20402;-63
2022/02/18 10:39:46;;;;;;;;;;;;;;;5.38;57.87;96644.91;5027339;28;19986;-63
2022/02/18 10:42:11;;;;;;;;;;;;;;;5.46;57.65;96654.03;5029440;28;20386;-64
2022/02/18 10:44:38;;;;;;;;;;;;;;;5.47;57.15;96655.59;5026207;28;19979;-62
2022/02/18 10:47:07;;;;;;;;;;;;;;;5.40;57.09;96657.75;5029011;28;19940;-62
2022/02/18 10:49:38;;;;;;;;;;;;;;;5.51;57.53;96659.28;5028467;28;20406;-62
2022/02/18 10:52:14;;;;;;;;;;;;;;;5.46;57.79;96659.28;5040870;28;19921;-61
2022/02/18 10:54:39;;;;;;;;;;;;;;;5.44;57.24;96670.09;5043817;28;20476;-59
2022/02/18 10:57:11;;;;;;;;;;;;;;;5.56;57.23;96682.91;5027056;28;19924;-61
2022/02/18 10:59:37;;;;;;;;;;;;;;;5.52;57.15;96687.13;5029546;28;19924;-61
2022/02/18 11:02:02;;;;;;;;;;;;;;;5.67;56.95;96692.28;5026198;28;20317;-60
2022/02/18 11:04:28;;;;;;;;;;;;;;;5.62;56.95;96700.22;5030658;28;19978;-61
2022/02/18 11:07:07;;;;;;;;;;;;;;;5.35;57.05;96705.84;5035031;28;19928;-60
2022/02/18 11:09:32;;;;;;;;;;;;;;;5.11;56.97;96710.91;5023832;28;20304;-61
2022/02/18 11:11:58;;;;;;;;;;;;;;;5.00;57.07;96709.41;5027835;28;19920;-60
2022/02/18 11:14:24;;;;;;;;;;;;;;;4.91;56.96;96717.03;5029598;28;20333;-61
2022/02/18 11:16:52;;;;;;;;;;;;;;;4.87;57.11;96713.34;5028934;28;19921;-61
2022/02/18 11:19:19;;;;;;;;;;;;;;;4.96;56.09;96724.09;5030297;28;20398;-59
2022/02/18 11:21:44;;;;;;;;;;;;;;;5.06;54.87;96721.44;5030182;28;19970;-62
2022/02/18 11:24:10;;;;;;;;;;;;;;;5.11;55.29;96725.88;5029857;28;19964;-61
2022/02/18 11:26:36;;;;;;;;;;;;;;;5.21;54.73;96728.50;5040903;28;19920;-61
2022/02/18 11:29:02;;;;;;;;;;;;;;;5.36;54.21;96728.44;5030178;28;19920;-62
2022/02/18 11:31:29;;;;;;;;;;;;;;;5.53;52.60;96730.75;5030550;28;19990;-62
2022/02/18 11:34:04;;;;;;;;;;;;;;;5.62;52.09;96730.97;5029063;28;20310;-61
2022/02/18 11:36:30;;;;;;;;;;;;;;;5.76;53.09;96731.16;5031009;28;20013;-61
2022/02/18 11:39:02;;;;;;;;;;;;;;;5.79;51.48;96735.88;5024420;28;20506;-61
2022/02/18 11:41:47;;;;;;;;;;;;;;;5.70;51.31;96738.28;5030739;28;19920;-61
2022/02/18 11:44:14;;;;;;;;;;;;;;;5.77;50.94;96741.41;5028590;28;19967;-61
2022/02/18 11:46:39;;;;;;;;;;;;;;;5.81;50.60;96752.94;5029250;28;19925;-60
2022/02/18 11:49:07;;;;;;;;;;;;;;;5.82;51.06;96756.34;5011082;28;20360;-61
2022/02/18 11:51:43;;;;;;;;;;;;;;;5.89;51.24;96757.63;5028699;28;20413;-61
2022/02/18 11:54:27;;;;;;;;;;;;;;;5.82;51.63;96764.25;5041095;28;19927;-61
2022/02/18 11:57:00;;;;;;;;;;;;;;;5.75;51.31;96769.78;5046650;28;20027;-61
2022/02/18 11:59:44;;;;;;;;;;;;;;;5.68;50.70;96775.34;5045285;28;19968;-60
2022/02/18 12:02:10;;;;;;;;;;;;;;;5.70;52.11;96783.72;5047716;28;19920;-62
2022/02/18 12:04:36;;;;;;;;;;;;;;;5.59;50.99;96791.94;5025519;28;20059;-61
2022/02/18 12:07:19;;;;;;;;;;;;;;;5.52;51.48;96786.19;5032492;28;19927;-63
2022/02/18 12:09:47;;;;;;;;;;;;;;;5.30;52.50;96792.56;5037865;28;19970;-62
2022/02/18 12:12:22;;;;;;;;;;;;;;;5.22;53.27;96796.50;5033938;28;20405;-61
2022/02/18 12:14:48;;;;;;;;;;;;;;;5.23;53.16;96807.78;5049146;28;20436;-61
2022/02/18 12:17:15;;;;;;;;;;;;;;;5.26;53.15;96814.34;5053482;28;19920;-61
2022/02/18 12:19:43;;;;;;;;;;;;;;;5.26;52.86;96809.09;5052522;28;20408;-60
2022/02/18 12:22:08;;;;;;;;;;;;;;;5.33;53.16;96817.50;5047974;28;19925;-61
2022/02/18 12:24:44;;;;;;;;;;;;;;;5.30;54.06;96820.66;5036367;28;19925;-62
2022/02/18 12:27:18;;;;;;;;;;;;;;;5.17;53.16;96827.22;5037301;28;20420;-60
2022/02/18 12:29:44;;;;;;;;;;;;;;;5.01;54.46;96829.88;5032181;28;19932;-63
2022/02/18 12:32:10;;;;;;;;;;;;;;;5.00;53.87;96836.19;5030076;28;19921;-61
2022/02/18 12:34:37;;;;;;;;;;;;;;;4.88;54.58;96845.38;5032003;28;19925;-61
2022/02/18 12:37:04;;;;;;;;;;;;;;;4.87;55.45;96846.44;5032594;28;20284;-63
2022/02/18 12:39:36;;;;;;;;;;;;;;;4.88;54.71;96856.69;5030934;28;19925;-61
2022/02/18 12:42:25;;;;;;;;;;;;;;;4.91;55.33;96861.41;5032730;28;19921;-61
2022/02/18 12:44:51;;;;;;;;;;;;;;;4.91;55.05;96860.59;5031516;28;19925;-61
2022/02/18 12:47:21;;;;;;;;;;;;;;;4.92;55.23;96859.56;5035249;28;19921;-63
2022/02/18 12:49:46;;;;;;;;;;;;;;;4.95;54.96;96866.91;5032115;28;19976;-63
2022/02/18 12:52:12;;;;;;;;;;;;;;;5.00;55.57;96866.91;5031721;28;19920;-65
2022/02/18 12:54:45;;;;;;;;;;;;;;;4.77;55.50;96866.38;5032093;28;19925;-62
2022/02/18 12:57:16;;;;;;;;;;;;;;;4.71;55.75;96871.88;5032427;28;20271;-63